sensor_id;sensor_type;location;lat;lon;timestamp;pressure;altitude;pressure_sealevel;temperature;humidity
55538;BME280;41383;51.418;7.286;2022-07-23T00:02:18;100111.50;;;17.63;83.24
55538;BME280;41383;51.418;7.286;2022-07-23T00:04:43;100115.47;;;17.57;83.72
55538;BME280;41383;51.418;7.286;2022-07-23T00:07:09;100116.13;;;17.34;85.68
55538;BME280;41383;51.418;7.286;2022-07-23T00:09:34;100120.53;;;17.49;85.55
55538;BME280;41383;51.418;7.286;2022-07-23T00:11:59;100119.13;;;17.52;85.76
55538;BME280;41383;51.418;7.286;2022-07-23T00:14:24;100113.03;;;17.55;85.88
55538;BME280;41383;51.418;7.286;2022-07-23T00:16:50;100109.25;;;17.51;86.12
55538;BME280;41383;51.418;7.286;2022-07-23T00:19:15;100107.41;;;17.60;85.44
55538;BME280;41383;51.418;7.286;2022-07-23T00:21:40;100099.84;;;17.52;85.40
55538;BME280;41383;51.418;7.286;2022-07-23T00:24:06;100091.75;;;17.42;85.56
55538;BME280;41383;51.418;7.286;2022-07-23T00:26:31;100100.81;;;17.28;85.86
55538;BME280;41383;51.418;7.286;2022-07-23T00:28:56;100097.94;;;17.33;86.28
55538;BME280;41383;51.418;7.286;2022-07-23T00:31:22;100086.81;;;17.24;86.03
55538;BME280;41383;51.418;7.286;2022-07-23T00:33:47;100085.09;;;17.09;86.95
55538;BME280;41383;51.418;7.286;2022-07-23T00:36:12;100089.50;;;17.10;87.05
55538;BME280;41383;51.418;7.286;2022-07-23T00:38:38;100101.41;;;17.25;87.44
55538;BME280;41383;51.418;7.286;2022-07-23T00:41:03;100101.75;;;17.37;86.12
55538;BME280;41383;51.418;7.286;2022-07-23T00:43:28;100098.97;;;17.37;86.21
55538;BME280;41383;51.418;7.286;2022-07-23T00:45:54;100091.84;;;17.36;85.80
55538;BME280;41383;51.418;7.286;2022-07-23T00:48:19;100085.22;;;17.37;85.80
55538;BME280;41383;51.418;7.286;2022-07-23T00:50:44;100083.41;;;17.47;85.74
55538;BME280;41383;51.418;7.286;2022-07-23T00:53:10;100081.13;;;17.35;86.46
55538;BME280;41383;51.418;7.286;2022-07-23T00:55:36;100092.88;;;17.41;86.27
55538;BME280;41383;51.418;7.286;2022-07-23T00:58:02;100078.59;;;17.38;86.57
55538;BME280;41383;51.418;7.286;2022-07-23T01:00:28;100073.16;;;17.33;86.74
55538;BME280;41383;51.418;7.286;2022-07-23T01:02:53;100074.09;;;17.29;87.17
55538;BME280;41383;51.418;7.286;2022-07-23T01:05:19;100072.94;;;17.30;87.30
55538;BME280;41383;51.418;7.286;2022-07-23T01:07:50;100074.06;;;17.14;87.43
55538;BME280;41383;51.418;7.286;2022-07-23T01:10:15;100080.34;;;17.15;87.59
55538;BME280;41383;51.418;7.286;2022-07-23T01:12:57;100078.56;;;17.24;87.68
55538;BME280;41383;51.418;7.286;2022-07-23T01:15:23;100080.50;;;17.24;87.57
55538;BME280;41383;51.418;7.286;2022-07-23T01:17:49;100082.63;;;17.27;87.22
55538;BME280;41383;51.418;7.286;2022-07-23T01:20:15;100071.59;;;17.27;87.49
55538;BME280;41383;51.418;7.286;2022-07-23T01:22:40;100077.22;;;17.22;87.52
55538;BME280;41383;51.418;7.286;2022-07-23T01:25:06;100074.66;;;17.25;87.98
55538;BME280;41383;51.418;7.286;2022-07-23T01:27:31;100076.94;;;17.37;87.04
55538;BME280;41383;51.418;7.286;2022-07-23T01:29:57;100066.09;;;17.27;87.77
55538;BME280;41383;51.418;7.286;2022-07-23T01:32:24;100070.06;;;17.21;87.70
55538;BME280;41383;51.418;7.286;2022-07-23T01:34:49;100076.31;;;17.26;88.46
55538;BME280;41383;51.418;7.286;2022-07-23T01:37:15;100081.84;;;17.26;88.01
55538;BME280;41383;51.418;7.286;2022-07-23T01:39:40;100084.47;;;17.32;87.69
55538;BME280;41383;51.418;7.286;2022-07-23T01:42:05;100082.44;;;17.37;87.23
55538;BME280;41383;51.418;7.286;2022-07-23T01:44:31;100074.50;;;17.36;87.82
55538;BME280;41383;51.418;7.286;2022-07-23T01:46:56;100071.31;;;17.29;87.62
55538;BME280;41383;51.418;7.286;2022-07-23T01:49:21;100067.13;;;17.31;87.22
55538;BME280;41383;51.418;7.286;2022-07-23T01:51:47;100063.44;;;17.22;87.76
55538;BME280;41383;51.418;7.286;2022-07-23T01:54:28;100068.34;;;17.25;87.67
55538;BME280;41383;51.418;7.286;2022-07-23T01:56:54;100065.69;;;17.20;87.80
55538;BME280;41383;51.418;7.286;2022-07-23T01:59:21;100063.44;;;17.22;88.37
55538;BME280;41383;51.418;7.286;2022-07-23T02:01:46;100054.88;;;17.23;88.17
55538;BME280;41383;51.418;7.286;2022-07-23T02:04:12;100057.31;;;17.25;88.49
55538;BME280;41383;51.418;7.286;2022-07-23T02:06:37;100056.53;;;17.24;88.25
55538;BME280;41383;51.418;7.286;2022-07-23T02:09:02;100050.59;;;17.31;87.95
55538;BME280;41383;51.418;7.286;2022-07-23T02:11:27;100053.63;;;17.15;88.45
55538;BME280;41383;51.418;7.286;2022-07-23T02:13:53;100052.38;;;17.08;88.99
55538;BME280;41383;51.418;7.286;2022-07-23T02:16:18;100046.25;;;17.11;88.38
55538;BME280;41383;51.418;7.286;2022-07-23T02:18:44;100046.66;;;17.04;89.13
55538;BME280;41383;51.418;7.286;2022-07-23T02:21:09;100062.66;;;17.02;88.84
55538;BME280;41383;51.418;7.286;2022-07-23T02:23:35;100052.22;;;16.99;88.86
55538;BME280;41383;51.418;7.286;2022-07-23T02:26:00;100059.81;;;17.07;88.37
55538;BME280;41383;51.418;7.286;2022-07-23T02:28:25;100059.28;;;17.05;87.74
55538;BME280;41383;51.418;7.286;2022-07-23T02:30:50;100065.84;;;17.09;86.93
55538;BME280;41383;51.418;7.286;2022-07-23T02:33:16;100074.66;;;16.92;88.03
55538;BME280;41383;51.418;7.286;2022-07-23T02:35:41;100069.00;;;16.83;88.68
55538;BME280;41383;51.418;7.286;2022-07-23T02:38:06;100062.94;;;16.67;88.76
55538;BME280;41383;51.418;7.286;2022-07-23T02:40:32;100058.31;;;16.62;89.14
55538;BME280;41383;51.418;7.286;2022-07-23T02:42:57;100054.97;;;16.46;89.38
55538;BME280;41383;51.418;7.286;2022-07-23T02:45:23;100045.22;;;16.54;89.49
55538;BME280;41383;51.418;7.286;2022-07-23T02:47:48;100052.81;;;16.62;89.47
55538;BME280;41383;51.418;7.286;2022-07-23T02:50:13;100049.63;;;16.55;88.99
55538;BME280;41383;51.418;7.286;2022-07-23T02:52:38;100055.19;;;16.50;88.63
55538;BME280;41383;51.418;7.286;2022-07-23T02:55:05;100062.41;;;16.45;88.86
55538;BME280;41383;51.418;7.286;2022-07-23T02:57:30;100052.69;;;16.53;88.42
55538;BME280;41383;51.418;7.286;2022-07-23T02:59:55;100058.84;;;16.64;87.95
55538;BME280;41383;51.418;7.286;2022-07-23T03:02:21;100067.03;;;16.50;87.50
55538;BME280;41383;51.418;7.286;2022-07-23T03:04:46;100061.38;;;16.41;87.66
55538;BME280;41383;51.418;7.286;2022-07-23T03:07:12;100068.22;;;16.25;88.18
55538;BME280;41383;51.418;7.286;2022-07-23T03:09:37;100073.25;;;16.17;89.06
55538;BME280;41383;51.418;7.286;2022-07-23T03:12:02;100079.34;;;16.14;88.72
55538;BME280;41383;51.418;7.286;2022-07-23T03:14:28;100078.16;;;16.20;89.89
55538;BME280;41383;51.418;7.286;2022-07-23T03:16:53;100069.16;;;16.34;90.06
55538;BME280;41383;51.418;7.286;2022-07-23T03:19:19;100060.16;;;16.48;90.82
55538;BME280;41383;51.418;7.286;2022-07-23T03:21:44;100047.91;;;16.59;90.07
55538;BME280;41383;51.418;7.286;2022-07-23T03:24:10;100055.03;;;16.60;90.10
55538;BME280;41383;51.418;7.286;2022-07-23T03:26:35;100060.09;;;16.53;89.59
55538;BME280;41383;51.418;7.286;2022-07-23T03:29:01;100053.41;;;16.59;90.01
55538;BME280;41383;51.418;7.286;2022-07-23T03:31:29;100055.34;;;16.39;89.16
55538;BME280;41383;51.418;7.286;2022-07-23T03:33:54;100056.53;;;16.33;89.90
55538;BME280;41383;51.418;7.286;2022-07-23T03:36:19;100053.41;;;16.20;90.18
55538;BME280;41383;51.418;7.286;2022-07-23T03:38:44;100047.00;;;16.06;89.82
55538;BME280;41383;51.418;7.286;2022-07-23T03:41:10;100057.88;;;16.16;90.39
55538;BME280;41383;51.418;7.286;2022-07-23T03:43:35;100057.25;;;16.19;89.97
55538;BME280;41383;51.418;7.286;2022-07-23T03:46:00;100045.69;;;16.22;89.00
55538;BME280;41383;51.418;7.286;2022-07-23T03:48:25;100058.59;;;16.03;89.41
55538;BME280;41383;51.418;7.286;2022-07-23T03:50:51;100061.38;;;15.97;89.58
55538;BME280;41383;51.418;7.286;2022-07-23T03:53:16;100060.78;;;16.01;89.97
55538;BME280;41383;51.418;7.286;2022-07-23T03:55:41;100069.00;;;16.06;89.90
55538;BME280;41383;51.418;7.286;2022-07-23T03:58:06;100063.00;;;16.23;89.94
55538;BME280;41383;51.418;7.286;2022-07-23T04:00:32;100069.44;;;16.13;90.09
55538;BME280;41383;51.418;7.286;2022-07-23T04:02:57;100066.63;;;16.18;90.92
55538;BME280;41383;51.418;7.286;2022-07-23T04:05:23;100068.22;;;16.25;91.30
55538;BME280;41383;51.418;7.286;2022-07-23T04:07:48;100057.81;;;16.41;91.49
55538;BME280;41383;51.418;7.286;2022-07-23T04:10:13;100065.91;;;16.51;91.02
55538;BME280;41383;51.418;7.286;2022-07-23T04:12:38;100069.94;;;16.59;90.45
55538;BME280;41383;51.418;7.286;2022-07-23T04:15:04;100061.59;;;16.64;91.07
55538;BME280;41383;51.418;7.286;2022-07-23T04:17:31;100070.88;;;16.68;91.02
55538;BME280;41383;51.418;7.286;2022-07-23T04:19:57;100069.69;;;16.75;91.22
55538;BME280;41383;51.418;7.286;2022-07-23T04:22:22;100072.13;;;16.96;89.47
55538;BME280;41383;51.418;7.286;2022-07-23T04:24:47;100072.19;;;16.90;89.65
55538;BME280;41383;51.418;7.286;2022-07-23T04:27:14;100070.81;;;17.07;89.66
55538;BME280;41383;51.418;7.286;2022-07-23T04:29:39;100063.19;;;17.04;88.92
55538;BME280;41383;51.418;7.286;2022-07-23T04:32:05;100064.28;;;17.03;89.58
55538;BME280;41383;51.418;7.286;2022-07-23T04:34:30;100066.72;;;17.04;89.65
55538;BME280;41383;51.418;7.286;2022-07-23T04:36:55;100066.31;;;17.17;88.83
55538;BME280;41383;51.418;7.286;2022-07-23T04:39:20;100073.16;;;17.00;88.68
55538;BME280;41383;51.418;7.286;2022-07-23T04:41:46;100081.13;;;16.82;89.98
55538;BME280;41383;51.418;7.286;2022-07-23T04:44:11;100083.75;;;16.54;90.29
55538;BME280;41383;51.418;7.286;2022-07-23T04:46:37;100092.63;;;16.51;91.16
55538;BME280;41383;51.418;7.286;2022-07-23T04:49:02;100103.09;;;16.49;91.17
55538;BME280;41383;51.418;7.286;2022-07-23T04:51:27;100106.22;;;16.61;91.54
55538;BME280;41383;51.418;7.286;2022-07-23T04:53:54;100102.81;;;16.69;90.55
55538;BME280;41383;51.418;7.286;2022-07-23T04:56:19;100110.47;;;16.73;90.83
55538;BME280;41383;51.418;7.286;2022-07-23T04:58:44;100106.59;;;16.54;91.08
55538;BME280;41383;51.418;7.286;2022-07-23T05:01:10;100122.13;;;16.64;90.78
55538;BME280;41383;51.418;7.286;2022-07-23T05:03:35;100114.63;;;16.70;90.49
55538;BME280;41383;51.418;7.286;2022-07-23T05:06:00;100116.28;;;16.71;90.83
55538;BME280;41383;51.418;7.286;2022-07-23T05:08:26;100111.59;;;16.72;90.02
55538;BME280;41383;51.418;7.286;2022-07-23T05:10:51;100122.06;;;16.69;90.86
55538;BME280;41383;51.418;7.286;2022-07-23T05:13:17;100121.63;;;16.82;89.49
55538;BME280;41383;51.418;7.286;2022-07-23T05:15:43;100122.34;;;16.68;91.42
55538;BME280;41383;51.418;7.286;2022-07-23T05:18:09;100118.47;;;16.88;90.80
55538;BME280;41383;51.418;7.286;2022-07-23T05:20:34;100117.63;;;17.07;89.71
55538;BME280;41383;51.418;7.286;2022-07-23T05:23:00;100113.84;;;17.22;88.23
55538;BME280;41383;51.418;7.286;2022-07-23T05:25:25;100122.91;;;17.23;88.15
55538;BME280;41383;51.418;7.286;2022-07-23T05:27:50;100120.41;;;17.26;87.23
55538;BME280;41383;51.418;7.286;2022-07-23T05:30:16;100123.53;;;17.20;88.40
55538;BME280;41383;51.418;7.286;2022-07-23T05:32:41;100128.13;;;17.05;87.63
55538;BME280;41383;51.418;7.286;2022-07-23T05:35:07;100125.38;;;17.05;87.12
55538;BME280;41383;51.418;7.286;2022-07-23T05:37:33;100128.13;;;17.05;86.92
55538;BME280;41383;51.418;7.286;2022-07-23T05:40:03;100135.91;;;17.22;86.43
55538;BME280;41383;51.418;7.286;2022-07-23T05:42:29;100135.13;;;17.36;85.40
55538;BME280;41383;51.418;7.286;2022-07-23T05:44:54;100136.88;;;17.12;86.67
55538;BME280;41383;51.418;7.286;2022-07-23T05:47:19;100152.81;;;17.15;86.63
55538;BME280;41383;51.418;7.286;2022-07-23T05:49:45;100147.50;;;17.19;86.90
55538;BME280;41383;51.418;7.286;2022-07-23T05:52:10;100144.84;;;17.14;86.55
55538;BME280;41383;51.418;7.286;2022-07-23T05:54:35;100143.47;;;17.31;86.74
55538;BME280;41383;51.418;7.286;2022-07-23T05:57:01;100144.69;;;17.24;87.00
55538;BME280;41383;51.418;7.286;2022-07-23T05:59:26;100145.16;;;17.12;87.31
55538;BME280;41383;51.418;7.286;2022-07-23T06:01:51;100141.31;;;17.08;86.67
55538;BME280;41383;51.418;7.286;2022-07-23T06:04:16;100143.19;;;17.13;87.76
55538;BME280;41383;51.418;7.286;2022-07-23T06:06:42;100142.97;;;17.29;87.22
55538;BME280;41383;51.418;7.286;2022-07-23T06:09:07;100144.78;;;17.33;87.50
55538;BME280;41383;51.418;7.286;2022-07-23T06:11:32;100146.75;;;17.33;86.98
55538;BME280;41383;51.418;7.286;2022-07-23T06:13:58;100141.34;;;17.42;86.01
55538;BME280;41383;51.418;7.286;2022-07-23T06:16:23;100151.09;;;17.53;86.60
55538;BME280;41383;51.418;7.286;2022-07-23T06:18:48;100148.72;;;17.46;86.52
55538;BME280;41383;51.418;7.286;2022-07-23T06:21:13;100159.38;;;17.53;85.96
55538;BME280;41383;51.418;7.286;2022-07-23T06:23:39;100163.16;;;17.57;85.82
55538;BME280;41383;51.418;7.286;2022-07-23T06:26:04;100159.59;;;17.71;85.43
55538;BME280;41383;51.418;7.286;2022-07-23T06:28:29;100159.13;;;17.97;84.46
55538;BME280;41383;51.418;7.286;2022-07-23T06:30:55;100162.28;;;18.04;82.78
55538;BME280;41383;51.418;7.286;2022-07-23T06:33:20;100161.88;;;17.97;82.31
55538;BME280;41383;51.418;7.286;2022-07-23T06:35:45;100164.53;;;18.02;82.86
55538;BME280;41383;51.418;7.286;2022-07-23T06:38:10;100166.97;;;17.76;84.55
55538;BME280;41383;51.418;7.286;2022-07-23T06:40:36;100167.03;;;17.70;84.63
55538;BME280;41383;51.418;7.286;2022-07-23T06:43:01;100166.16;;;17.89;84.72
55538;BME280;41383;51.418;7.286;2022-07-23T06:45:26;100161.53;;;17.84;83.33
55538;BME280;41383;51.418;7.286;2022-07-23T06:47:52;100167.25;;;17.74;84.49
55538;BME280;41383;51.418;7.286;2022-07-23T06:50:17;100173.53;;;17.94;83.74
55538;BME280;41383;51.418;7.286;2022-07-23T06:52:42;100170.66;;;18.13;82.72
55538;BME280;41383;51.418;7.286;2022-07-23T06:55:09;100174.25;;;18.14;82.96
55538;BME280;41383;51.418;7.286;2022-07-23T06:57:34;100173.84;;;18.20;82.54
55538;BME280;41383;51.418;7.286;2022-07-23T06:59:59;100178.25;;;18.36;82.28
55538;BME280;41383;51.418;7.286;2022-07-23T07:02:24;100178.56;;;18.48;82.45
55538;BME280;41383;51.418;7.286;2022-07-23T07:04:50;100184.88;;;18.35;81.18
55538;BME280;41383;51.418;7.286;2022-07-23T07:07:15;100192.69;;;18.33;81.72
55538;BME280;41383;51.418;7.286;2022-07-23T07:09:40;100186.53;;;18.50;81.92
55538;BME280;41383;51.418;7.286;2022-07-23T07:12:06;100188.03;;;18.70;81.62
55538;BME280;41383;51.418;7.286;2022-07-23T07:14:31;100181.59;;;18.75;80.58
55538;BME280;41383;51.418;7.286;2022-07-23T07:16:56;100181.63;;;18.84;79.58
55538;BME280;41383;51.418;7.286;2022-07-23T07:19:22;100189.53;;;18.76;79.32
55538;BME280;41383;51.418;7.286;2022-07-23T07:21:47;100186.91;;;18.71;79.60
55538;BME280;41383;51.418;7.286;2022-07-23T07:24:12;100186.47;;;18.78;80.05
55538;BME280;41383;51.418;7.286;2022-07-23T07:26:37;100180.97;;;18.64;80.85
55538;BME280;41383;51.418;7.286;2022-07-23T07:29:04;100184.63;;;18.73;80.68
55538;BME280;41383;51.418;7.286;2022-07-23T07:31:29;100186.56;;;18.87;78.38
55538;BME280;41383;51.418;7.286;2022-07-23T07:33:55;100197.72;;;18.82;78.47
55538;BME280;41383;51.418;7.286;2022-07-23T07:36:22;100196.97;;;18.90;80.22
55538;BME280;41383;51.418;7.286;2022-07-23T07:38:47;100195.81;;;19.05;79.28
55538;BME280;41383;51.418;7.286;2022-07-23T07:41:12;100201.94;;;19.02;78.01
55538;BME280;41383;51.418;7.286;2022-07-23T07:43:38;100196.63;;;19.06;78.36
55538;BME280;41383;51.418;7.286;2022-07-23T07:46:03;100202.78;;;19.02;80.26
55538;BME280;41383;51.418;7.286;2022-07-23T07:48:29;100201.75;;;18.98;78.98
55538;BME280;41383;51.418;7.286;2022-07-23T07:50:54;100206.66;;;19.39;77.91
55538;BME280;41383;51.418;7.286;2022-07-23T07:53:20;100206.94;;;19.83;76.14
55538;BME280;41383;51.418;7.286;2022-07-23T07:55:45;100200.34;;;19.93;75.13
55538;BME280;41383;51.418;7.286;2022-07-23T07:58:10;100202.19;;;19.75;74.75
55538;BME280;41383;51.418;7.286;2022-07-23T08:00:36;100203.38;;;19.91;74.11
55538;BME280;41383;51.418;7.286;2022-07-23T08:03:01;100207.59;;;20.12;73.47
55538;BME280;41383;51.418;7.286;2022-07-23T08:05:28;100204.25;;;20.01;72.81
55538;BME280;41383;51.418;7.286;2022-07-23T08:07:58;100212.31;;;20.11;73.78
55538;BME280;41383;51.418;7.286;2022-07-23T08:10:25;100213.63;;;20.14;74.67
55538;BME280;41383;51.418;7.286;2022-07-23T08:12:53;100216.38;;;20.14;74.40
55538;BME280;41383;51.418;7.286;2022-07-23T08:15:22;100223.75;;;20.18;73.69
55538;BME280;41383;51.418;7.286;2022-07-23T08:17:48;100213.84;;;19.94;73.19
55538;BME280;41383;51.418;7.286;2022-07-23T08:20:15;100228.44;;;19.86;74.81
55538;BME280;41383;51.418;7.286;2022-07-23T08:22:54;100227.16;;;19.92;74.44
55538;BME280;41383;51.418;7.286;2022-07-23T08:25:23;100230.72;;;20.16;74.83
55538;BME280;41383;51.418;7.286;2022-07-23T08:27:49;100227.53;;;20.00;74.15
55538;BME280;41383;51.418;7.286;2022-07-23T08:30:14;100233.81;;;20.14;74.82
55538;BME280;41383;51.418;7.286;2022-07-23T08:35:16;100228.72;;;20.39;72.98
55538;BME280;41383;51.418;7.286;2022-07-23T08:37:42;100233.69;;;20.28;72.01
55538;BME280;41383;51.418;7.286;2022-07-23T08:40:07;100243.00;;;20.24;71.54
55538;BME280;41383;51.418;7.286;2022-07-23T08:42:33;100234.75;;;20.10;70.79
55538;BME280;41383;51.418;7.286;2022-07-23T08:45:02;100232.63;;;20.06;71.66
55538;BME280;41383;51.418;7.286;2022-07-23T08:47:27;100235.97;;;20.17;70.49
55538;BME280;41383;51.418;7.286;2022-07-23T08:49:53;100236.94;;;20.22;71.38
55538;BME280;41383;51.418;7.286;2022-07-23T08:52:19;100234.88;;;20.36;69.98
55538;BME280;41383;51.418;7.286;2022-07-23T08:54:44;100231.91;;;20.24;68.29
55538;BME280;41383;51.418;7.286;2022-07-23T08:57:09;100240.50;;;20.63;68.63
55538;BME280;41383;51.418;7.286;2022-07-23T08:59:34;100245.97;;;20.45;65.45
55538;BME280;41383;51.418;7.286;2022-07-23T09:02:00;100241.69;;;20.80;65.93
55538;BME280;41383;51.418;7.286;2022-07-23T09:04:25;100241.53;;;20.94;66.03
55538;BME280;41383;51.418;7.286;2022-07-23T09:06:51;100251.13;;;20.87;66.53
55538;BME280;41383;51.418;7.286;2022-07-23T09:09:20;100249.50;;;20.95;65.47
55538;BME280;41383;51.418;7.286;2022-07-23T09:11:46;100251.63;;;20.90;66.23
55538;BME280;41383;51.418;7.286;2022-07-23T09:14:12;100252.78;;;20.88;65.02
55538;BME280;41383;51.418;7.286;2022-07-23T09:16:37;100253.09;;;20.78;63.69
55538;BME280;41383;51.418;7.286;2022-07-23T09:19:04;100253.50;;;21.21;63.42
55538;BME280;41383;51.418;7.286;2022-07-23T09:21:38;100248.13;;;21.33;62.66
55538;BME280;41383;51.418;7.286;2022-07-23T09:26:40;100246.13;;;21.61;61.45
55538;BME280;41383;51.418;7.286;2022-07-23T09:29:09;100247.78;;;21.62;61.03
55538;BME280;41383;51.418;7.286;2022-07-23T09:31:53;100260.81;;;21.88;61.50
55538;BME280;41383;51.418;7.286;2022-07-23T09:36:47;100255.81;;;22.20;58.11
55538;BME280;41383;51.418;7.286;2022-07-23T09:39:13;100249.69;;;21.88;60.28
55538;BME280;41383;51.418;7.286;2022-07-23T09:41:44;100255.53;;;21.95;59.53
55538;BME280;41383;51.418;7.286;2022-07-23T09:44:15;100250.09;;;22.16;58.24
55538;BME280;41383;51.418;7.286;2022-07-23T09:46:42;100244.09;;;22.45;58.24
55538;BME280;41383;51.418;7.286;2022-07-23T09:51:56;100241.44;;;22.18;59.23
55538;BME280;41383;51.418;7.286;2022-07-23T09:54:35;100237.69;;;22.53;57.91
55538;BME280;41383;51.418;7.286;2022-07-23T09:57:09;100240.41;;;22.71;56.61
55538;BME280;41383;51.418;7.286;2022-07-23T09:59:40;100237.19;;;22.90;55.96
55538;BME280;41383;51.418;7.286;2022-07-23T10:02:07;100232.22;;;22.96;55.46
55538;BME280;41383;51.418;7.286;2022-07-23T10:04:33;100230.78;;;23.11;56.30
55538;BME280;41383;51.418;7.286;2022-07-23T10:07:01;100231.88;;;23.19;54.58
55538;BME280;41383;51.418;7.286;2022-07-23T10:09:29;100238.34;;;23.11;54.91
55538;BME280;41383;51.418;7.286;2022-07-23T10:11:57;100234.78;;;23.01;55.67
55538;BME280;41383;51.418;7.286;2022-07-23T10:14:30;100237.00;;;22.86;57.62
55538;BME280;41383;51.418;7.286;2022-07-23T10:16:58;100241.72;;;23.16;54.86
55538;BME280;41383;51.418;7.286;2022-07-23T10:19:24;100239.44;;;23.31;54.33
55538;BME280;41383;51.418;7.286;2022-07-23T10:21:54;100244.59;;;23.41;53.35
55538;BME280;41383;51.418;7.286;2022-07-23T10:24:27;100230.91;;;23.36;53.52
55538;BME280;41383;51.418;7.286;2022-07-23T10:26:58;100233.16;;;23.77;54.08
55538;BME280;41383;51.418;7.286;2022-07-23T10:29:58;100230.31;;;23.86;53.57
55538;BME280;41383;51.418;7.286;2022-07-23T10:32:40;100237.84;;;23.98;53.48
55538;BME280;41383;51.418;7.286;2022-07-23T10:37:44;100235.78;;;24.07;54.30
55538;BME280;41383;51.418;7.286;2022-07-23T10:40:13;100243.88;;;23.87;52.43
55538;BME280;41383;51.418;7.286;2022-07-23T10:42:39;100238.53;;;23.95;52.56
55538;BME280;41383;51.418;7.286;2022-07-23T10:48:18;100237.13;;;23.88;51.11
55538;BME280;41383;51.418;7.286;2022-07-23T10:51:05;100236.22;;;23.97;50.44
55538;BME280;41383;51.418;7.286;2022-07-23T10:59:21;100225.09;;;24.09;50.53
55538;BME280;41383;51.418;7.286;2022-07-23T11:01:47;100226.91;;;23.67;49.65
55538;BME280;41383;51.418;7.286;2022-07-23T11:04:12;100225.78;;;23.47;49.99
55538;BME280;41383;51.418;7.286;2022-07-23T11:09:24;100227.13;;;24.59;48.72
55538;BME280;41383;51.418;7.286;2022-07-23T11:14:58;100230.00;;;24.63;49.01
55538;BME280;41383;51.418;7.286;2022-07-23T11:17:24;100231.97;;;24.62;48.34
55538;BME280;41383;51.418;7.286;2022-07-23T11:25:07;100227.56;;;25.27;47.12
55538;BME280;41383;51.418;7.286;2022-07-23T11:27:45;100229.97;;;25.00;46.22
55538;BME280;41383;51.418;7.286;2022-07-23T11:32:51;100222.22;;;24.81;47.39
55538;BME280;41383;51.418;7.286;2022-07-23T11:35:27;100226.94;;;24.93;46.83
55538;BME280;41383;51.418;7.286;2022-07-23T11:38:02;100219.44;;;24.68;47.61
55538;BME280;41383;51.418;7.286;2022-07-23T11:40:28;100214.06;;;24.76;46.82
55538;BME280;41383;51.418;7.286;2022-07-23T11:42:59;100215.31;;;24.91;47.75
55538;BME280;41383;51.418;7.286;2022-07-23T11:45:30;100227.88;;;24.97;46.85
55538;BME280;41383;51.418;7.286;2022-07-23T11:47:56;100223.69;;;24.91;46.95
55538;BME280;41383;51.418;7.286;2022-07-23T11:50:23;100221.50;;;24.97;45.34
55538;BME280;41383;51.418;7.286;2022-07-23T11:52:49;100221.06;;;25.23;44.64
55538;BME280;41383;51.418;7.286;2022-07-23T11:55:15;100223.50;;;25.53;44.29
55538;BME280;41383;51.418;7.286;2022-07-23T11:57:42;100216.31;;;25.52;44.51
55538;BME280;41383;51.418;7.286;2022-07-23T12:00:15;100224.06;;;25.02;46.43
55538;BME280;41383;51.418;7.286;2022-07-23T12:02:43;100223.00;;;25.35;45.62
55538;BME280;41383;51.418;7.286;2022-07-23T12:05:14;100216.72;;;25.99;45.45
55538;BME280;41383;51.418;7.286;2022-07-23T12:07:42;100227.63;;;26.37;43.86
55538;BME280;41383;51.418;7.286;2022-07-23T12:10:20;100223.50;;;26.47;42.45
55538;BME280;41383;51.418;7.286;2022-07-23T12:12:50;100223.34;;;26.40;42.88
55538;BME280;41383;51.418;7.286;2022-07-23T12:15:27;100217.00;;;26.43;42.94
55538;BME280;41383;51.418;7.286;2022-07-23T12:17:54;100207.09;;;27.01;42.94
55538;BME280;41383;51.418;7.286;2022-07-23T12:20:22;100217.81;;;26.79;41.39
55538;BME280;41383;51.418;7.286;2022-07-23T12:22:50;100201.75;;;27.12;41.27
55538;BME280;41383;51.418;7.286;2022-07-23T12:25:19;100203.97;;;27.23;40.58
55538;BME280;41383;51.418;7.286;2022-07-23T12:27:46;100205.81;;;27.58;39.05
55538;BME280;41383;51.418;7.286;2022-07-23T12:30:27;100209.44;;;26.99;41.70
55538;BME280;41383;51.418;7.286;2022-07-23T12:32:55;100204.00;;;27.46;40.76
55538;BME280;41383;51.418;7.286;2022-07-23T12:35:22;100208.38;;;27.67;40.09
55538;BME280;41383;51.418;7.286;2022-07-23T12:37:50;100201.38;;;27.77;38.43
55538;BME280;41383;51.418;7.286;2022-07-23T12:40:34;100200.22;;;27.15;39.59
55538;BME280;41383;51.418;7.286;2022-07-23T12:45:53;100200.78;;;27.04;39.21
55538;BME280;41383;51.418;7.286;2022-07-23T12:48:35;100208.63;;;26.79;40.62
55538;BME280;41383;51.418;7.286;2022-07-23T12:51:03;100217.44;;;26.29;41.13
55538;BME280;41383;51.418;7.286;2022-07-23T12:53:37;100207.91;;;27.02;41.00
55538;BME280;41383;51.418;7.286;2022-07-23T12:56:10;100207.75;;;26.75;39.49
55538;BME280;41383;51.418;7.286;2022-07-23T12:58:56;100216.00;;;27.47;39.42
55538;BME280;41383;51.418;7.286;2022-07-23T13:04:07;100213.34;;;26.95;39.19
55538;BME280;41383;51.418;7.286;2022-07-23T13:06:38;100212.81;;;27.25;37.53
55538;BME280;41383;51.418;7.286;2022-07-23T13:09:06;100221.38;;;27.36;39.17
55538;BME280;41383;51.418;7.286;2022-07-23T13:11:32;100218.34;;;27.84;39.33
55538;BME280;41383;51.418;7.286;2022-07-23T13:13:58;100226.41;;;27.90;39.23
55538;BME280;41383;51.418;7.286;2022-07-23T13:16:26;100222.72;;;27.62;37.27
55538;BME280;41383;51.418;7.286;2022-07-23T13:18:51;100222.19;;;27.56;38.60
55538;BME280;41383;51.418;7.286;2022-07-23T13:21:17;100218.94;;;27.74;39.92
55538;BME280;41383;51.418;7.286;2022-07-23T13:23:42;100220.84;;;28.40;37.85
55538;BME280;41383;51.418;7.286;2022-07-23T13:26:08;100224.16;;;27.99;37.60
55538;BME280;41383;51.418;7.286;2022-07-23T13:28:33;100227.34;;;28.21;37.79
55538;BME280;41383;51.418;7.286;2022-07-23T13:30:58;100232.28;;;28.04;37.12